createdAt,value
2019-03-27T00:00:25.418Z,0
2019-03-27T00:01:05.818Z,0
2019-03-27T00:01:46.230Z,0
2019-03-27T00:02:26.654Z,0
2019-03-27T00:03:07.074Z,0
2019-03-27T00:03:47.508Z,0
2019-03-27T00:04:27.944Z,0
2019-03-27T00:05:08.370Z,0
2019-03-27T00:05:48.737Z,0
2019-03-27T00:06:29.154Z,0
2019-03-27T00:07:09.613Z,0
2019-03-27T00:07:49.997Z,0
2019-03-27T00:08:30.415Z,0
2019-03-27T00:09:10.832Z,0
2019-03-27T00:09:51.299Z,0
2019-03-27T00:10:31.709Z,0
2019-03-27T00:11:12.110Z,0
2019-03-27T00:11:52.522Z,0
2019-03-27T00:12:32.970Z,0
2019-03-27T00:13:13.408Z,0
2019-03-27T00:13:53.824Z,0
2019-03-27T00:14:34.255Z,0
2019-03-27T00:15:14.672Z,0
2019-03-27T00:15:55.112Z,0
2019-03-27T00:16:35.483Z,0
2019-03-27T00:17:15.939Z,0
2019-03-27T00:17:56.322Z,0
2019-03-27T00:18:36.737Z,0
2019-03-27T00:19:17.164Z,0
2019-03-27T00:19:57.586Z,0
2019-03-27T00:20:37.991Z,0
2019-03-27T00:21:18.403Z,0
2019-03-27T00:21:58.847Z,0
2019-03-27T00:22:39.333Z,0
2019-03-27T00:23:19.701Z,0
2019-03-27T00:24:00.135Z,0
2019-03-27T00:24:40.527Z,0
2019-03-27T00:25:20.955Z,0
2019-03-27T00:26:01.417Z,0
2019-03-27T00:26:41.863Z,0
2019-03-27T00:27:22.336Z,0
2019-03-27T00:28:02.726Z,0
2019-03-27T00:28:43.159Z,0
2019-03-27T00:29:23.576Z,0
2019-03-27T00:30:04.010Z,0
2019-03-27T00:30:44.404Z,0
2019-03-27T00:31:24.836Z,0
2019-03-27T00:32:05.262Z,0
2019-03-27T00:32:45.666Z,0
2019-03-27T00:33:26.086Z,0
2019-03-27T00:34:06.499Z,0
2019-03-27T00:34:46.937Z,0
2019-03-27T00:35:27.451Z,0
2019-03-27T00:36:07.786Z,0
2019-03-27T00:36:48.233Z,0
2019-03-27T00:37:28.659Z,0
2019-03-27T00:38:09.069Z,0
2019-03-27T00:38:49.486Z,0
2019-03-27T00:39:29.903Z,0
2019-03-27T00:40:10.341Z,0
2019-03-27T00:40:50.755Z,0
2019-03-27T00:41:31.168Z,0
2019-03-27T00:42:11.596Z,0
2019-03-27T00:42:52.058Z,0
2019-03-27T00:43:32.501Z,0
2019-03-27T00:44:12.926Z,0
2019-03-27T00:44:53.301Z,0
2019-03-27T00:45:33.744Z,0
2019-03-27T00:46:14.123Z,0
2019-03-27T00:46:54.530Z,0
2019-03-27T00:47:34.960Z,0
2019-03-27T00:48:15.393Z,0
2019-03-27T00:48:55.801Z,0
2019-03-27T00:49:36.212Z,0
2019-03-27T00:50:16.819Z,0
2019-03-27T00:50:57.237Z,0
2019-03-27T00:51:37.669Z,0
2019-03-27T00:52:18.097Z,0
2019-03-27T00:52:58.511Z,0
2019-03-27T00:53:38.952Z,0
2019-03-27T00:54:19.352Z,0
2019-03-27T00:54:59.778Z,0
2019-03-27T00:55:40.207Z,0
2019-03-27T00:56:20.629Z,0
2019-03-27T00:57:01.048Z,0
2019-03-27T00:57:41.480Z,0
2019-03-27T00:58:21.906Z,0
2019-03-27T00:59:02.325Z,0
2019-03-27T00:59:42.731Z,0
2019-03-27T01:00:23.154Z,0
2019-03-27T01:01:03.582Z,0
2019-03-27T01:01:43.994Z,0
2019-03-27T01:02:24.416Z,0
2019-03-27T01:03:04.830Z,0
2019-03-27T01:03:45.244Z,0
2019-03-27T01:04:25.674Z,0
2019-03-27T01:05:06.080Z,0
2019-03-27T01:05:46.526Z,0
2019-03-27T01:06:26.948Z,0
2019-03-27T01:07:07.374Z,0
2019-03-27T01:07:47.798Z,0
2019-03-27T01:08:28.212Z,0
2019-03-27T01:09:08.626Z,0
2019-03-27T01:09:49.056Z,0
2019-03-27T01:10:29.503Z,0
2019-03-27T01:11:09.943Z,0
2019-03-27T01:11:50.350Z,0
2019-03-27T01:12:30.764Z,0
2019-03-27T01:13:11.183Z,0
2019-03-27T01:13:51.605Z,0
2019-03-27T01:14:32.032Z,0
2019-03-27T01:15:12.449Z,0
2019-03-27T01:15:52.865Z,0
2019-03-27T01:16:33.281Z,0
2019-03-27T01:17:13.722Z,0
2019-03-27T01:17:54.142Z,0
2019-03-27T01:18:34.589Z,0
2019-03-27T01:19:15.007Z,0
2019-03-27T01:19:55.418Z,0
2019-03-27T01:20:35.841Z,0
2019-03-27T01:21:16.253Z,0
2019-03-27T01:21:56.677Z,0
2019-03-27T01:22:37.108Z,0
2019-03-27T01:23:17.497Z,0
2019-03-27T01:23:57.934Z,0
2019-03-27T01:24:38.314Z,0
2019-03-27T01:25:18.746Z,0
2019-03-27T01:25:59.221Z,0
2019-03-27T01:26:39.568Z,0
2019-03-27T01:27:19.988Z,0
2019-03-27T01:28:00.399Z,0
2019-03-27T01:28:40.804Z,0
2019-03-27T01:29:21.190Z,0
2019-03-27T01:30:01.604Z,0
2019-03-27T01:30:42.013Z,0
2019-03-27T01:31:22.432Z,0
2019-03-27T01:32:02.860Z,0
2019-03-27T01:32:43.226Z,0
2019-03-27T01:33:23.630Z,0
2019-03-27T01:34:04.058Z,0
2019-03-27T01:34:44.490Z,0
2019-03-27T01:35:24.897Z,0
2019-03-27T01:36:05.330Z,0
2019-03-27T01:36:45.755Z,0
2019-03-27T01:37:26.185Z,0
2019-03-27T01:38:06.605Z,0
2019-03-27T01:38:47.028Z,0
2019-03-27T01:39:27.446Z,0
2019-03-27T01:40:07.881Z,0
2019-03-27T01:40:48.312Z,0
2019-03-27T01:41:28.738Z,0
2019-03-27T01:42:09.163Z,0
2019-03-27T01:42:49.558Z,0
2019-03-27T01:43:29.976Z,0
2019-03-27T01:44:10.398Z,0
2019-03-27T01:44:50.822Z,0
2019-03-27T01:45:31.243Z,0
2019-03-27T01:46:11.663Z,0
2019-03-27T01:46:52.079Z,0
2019-03-27T01:47:32.554Z,0
2019-03-27T01:48:12.961Z,0
2019-03-27T01:48:53.370Z,0
2019-03-27T01:49:33.794Z,0
2019-03-27T01:50:14.211Z,0
2019-03-27T01:50:54.635Z,0
2019-03-27T01:51:35.053Z,0
2019-03-27T01:52:15.475Z,0
2019-03-27T01:52:55.900Z,0
2019-03-27T01:53:36.317Z,0
2019-03-27T01:54:16.744Z,0
2019-03-27T01:54:57.156Z,0
2019-03-27T01:55:37.568Z,0
2019-03-27T01:56:17.999Z,0
2019-03-27T01:56:58.433Z,0
2019-03-27T01:57:38.854Z,0
2019-03-27T01:58:19.329Z,0
2019-03-27T01:58:59.759Z,0
2019-03-27T01:59:40.181Z,0
2019-03-27T02:00:20.612Z,0
2019-03-27T02:01:01.052Z,0
2019-03-27T02:01:41.434Z,0
2019-03-27T02:02:21.862Z,0
2019-03-27T02:03:02.293Z,0
2019-03-27T02:03:42.694Z,0
2019-03-27T02:04:23.146Z,0
2019-03-27T02:05:03.546Z,0
2019-03-27T02:05:43.955Z,0
2019-03-27T02:06:24.384Z,0
2019-03-27T02:07:04.790Z,0
2019-03-27T02:07:45.207Z,0
2019-03-27T02:08:25.656Z,0
2019-03-27T02:09:06.079Z,0
2019-03-27T02:09:46.501Z,0
2019-03-27T02:10:26.924Z,0
2019-03-27T02:11:07.331Z,0
2019-03-27T02:11:47.760Z,0
2019-03-27T02:12:28.169Z,0
2019-03-27T02:13:08.627Z,0
2019-03-27T02:13:49.069Z,0
2019-03-27T02:14:29.480Z,0
2019-03-27T02:15:09.890Z,0
2019-03-27T02:15:50.314Z,0
2019-03-27T02:16:30.735Z,0
2019-03-27T02:17:11.177Z,0
2019-03-27T02:17:51.620Z,0
2019-03-27T02:18:32.009Z,0
2019-03-27T02:19:12.431Z,0
2019-03-27T02:19:52.851Z,0
2019-03-27T02:20:33.280Z,0
2019-03-27T02:21:13.689Z,0
2019-03-27T02:21:54.104Z,0
2019-03-27T02:22:34.518Z,0
2019-03-27T02:23:14.956Z,0
2019-03-27T02:23:55.399Z,0
2019-03-27T02:24:35.788Z,0
2019-03-27T02:25:16.233Z,0
2019-03-27T02:25:56.623Z,0
2019-03-27T02:26:37.034Z,0
2019-03-27T02:27:17.469Z,0
2019-03-27T02:27:57.889Z,0
2019-03-27T02:28:38.301Z,0
2019-03-27T02:29:18.686Z,0
2019-03-27T02:29:59.091Z,0
2019-03-27T02:30:39.511Z,0
2019-03-27T02:31:19.947Z,0
2019-03-27T02:32:00.351Z,0
2019-03-27T02:32:40.820Z,0
2019-03-27T02:33:21.367Z,0
2019-03-27T02:34:01.738Z,0
2019-03-27T02:34:42.077Z,0
2019-03-27T02:35:22.560Z,0
2019-03-27T02:36:02.931Z,0
2019-03-27T02:36:43.345Z,0
2019-03-27T02:37:23.746Z,0
2019-03-27T02:38:04.173Z,0
2019-03-27T02:38:44.585Z,0
2019-03-27T02:39:25.023Z,0
2019-03-27T02:40:05.470Z,0
2019-03-27T02:40:45.868Z,0
2019-03-27T02:41:26.293Z,0
2019-03-27T02:42:06.722Z,0
2019-03-27T02:42:47.131Z,0
2019-03-27T02:43:27.517Z,0
2019-03-27T02:44:07.946Z,0
2019-03-27T02:44:48.370Z,0
2019-03-27T02:45:28.780Z,0
2019-03-27T02:46:23.579Z,0
2019-03-27T02:46:49.582Z,0
2019-03-27T02:47:30.023Z,0
2019-03-27T02:48:13.758Z,0
2019-03-27T02:48:50.874Z,0
2019-03-27T02:49:31.331Z,0
2019-03-27T02:50:11.756Z,0
2019-03-27T02:50:52.211Z,0
2019-03-27T02:51:32.657Z,0
2019-03-27T02:52:13.093Z,0
2019-03-27T02:52:53.533Z,0
2019-03-27T02:53:33.955Z,0
2019-03-27T02:54:14.414Z,0
2019-03-27T02:54:54.783Z,0
2019-03-27T02:55:35.214Z,0
2019-03-27T02:56:15.655Z,0
2019-03-27T02:56:56.068Z,0
2019-03-27T02:57:36.528Z,0
2019-03-27T03:00:04.673Z,0
2019-03-27T03:00:44.945Z,0
2019-03-27T03:01:25.370Z,0
2019-03-27T03:02:05.767Z,0
2019-03-27T03:02:46.197Z,0
2019-03-27T03:03:26.612Z,0
2019-03-27T03:04:07.046Z,0
2019-03-27T03:04:47.482Z,0
2019-03-27T03:05:28.004Z,0
2019-03-27T03:06:08.404Z,0
2019-03-27T03:06:48.815Z,0
2019-03-27T03:07:29.234Z,0
2019-03-27T03:08:09.647Z,0
2019-03-27T03:08:50.067Z,0
2019-03-27T03:09:30.513Z,0
2019-03-27T03:10:10.939Z,0
2019-03-27T03:10:51.355Z,0
2019-03-27T03:11:31.765Z,0
2019-03-27T03:12:12.174Z,0
2019-03-27T03:12:52.647Z,0
2019-03-27T03:13:32.999Z,0
2019-03-27T03:14:13.452Z,0
2019-03-27T03:14:53.822Z,0
2019-03-27T03:15:34.312Z,0
2019-03-27T03:16:14.657Z,0
2019-03-27T03:16:55.063Z,0
2019-03-27T03:17:35.481Z,0
2019-03-27T03:18:15.917Z,0
2019-03-27T03:18:56.330Z,0
2019-03-27T03:19:36.790Z,0
2019-03-27T03:20:17.162Z,0
2019-03-27T03:20:57.581Z,0
2019-03-27T03:21:37.997Z,0
2019-03-27T03:22:18.417Z,0
2019-03-27T03:22:58.939Z,0
2019-03-27T03:23:39.358Z,0
2019-03-27T03:24:19.774Z,0
2019-03-27T03:25:00.429Z,0
2019-03-27T03:25:40.564Z,0
2019-03-27T03:26:21.001Z,0
2019-03-27T03:27:01.410Z,0
2019-03-27T03:27:41.857Z,0
2019-03-27T03:28:22.264Z,0
2019-03-27T03:29:02.670Z,0
2019-03-27T03:29:43.072Z,0
2019-03-27T03:30:23.436Z,0
2019-03-27T03:31:03.873Z,0
2019-03-27T03:31:44.260Z,0
2019-03-27T03:32:24.723Z,0
2019-03-27T03:33:05.122Z,0
2019-03-27T03:33:45.479Z,0
2019-03-27T03:34:26.004Z,0
2019-03-27T03:35:06.321Z,0
2019-03-27T03:35:46.754Z,0
2019-03-27T03:36:27.148Z,0
2019-03-27T03:37:07.580Z,0
2019-03-27T03:37:48.055Z,0
2019-03-27T03:38:28.402Z,0
2019-03-27T03:39:08.804Z,0
2019-03-27T03:39:49.237Z,0
2019-03-27T03:40:29.633Z,0
2019-03-27T03:41:10.039Z,0
2019-03-27T03:41:50.445Z,0
2019-03-27T03:42:30.836Z,0
2019-03-27T03:43:11.236Z,0
2019-03-27T03:43:51.646Z,0
2019-03-27T03:44:32.058Z,0
2019-03-27T03:45:12.495Z,0
2019-03-27T03:45:52.929Z,0
2019-03-27T03:46:33.338Z,0
2019-03-27T03:47:13.754Z,0
2019-03-27T03:47:54.156Z,0
2019-03-27T03:48:34.600Z,0
2019-03-27T03:49:15.009Z,0
2019-03-27T03:49:55.434Z,0
2019-03-27T03:50:35.853Z,0
2019-03-27T03:51:16.281Z,0
2019-03-27T03:51:56.702Z,0
2019-03-27T03:52:37.112Z,0
2019-03-27T03:53:17.597Z,0
2019-03-27T03:53:58.009Z,0
2019-03-27T03:54:38.403Z,0
2019-03-27T03:55:18.828Z,0
2019-03-27T03:55:59.228Z,0
2019-03-27T03:56:39.664Z,0
2019-03-27T03:57:20.090Z,0
2019-03-27T03:58:00.524Z,0
2019-03-27T03:58:40.934Z,0
2019-03-27T03:59:21.335Z,0
2019-03-27T04:00:01.748Z,0
2019-03-27T04:00:42.159Z,0
2019-03-27T04:01:22.601Z,0
2019-03-27T04:02:03.018Z,0
2019-03-27T04:02:43.457Z,0
2019-03-27T04:03:23.886Z,0
2019-03-27T04:04:04.344Z,0
2019-03-27T04:04:44.746Z,0
2019-03-27T04:05:25.171Z,0
2019-03-27T04:06:05.584Z,0
2019-03-27T04:06:46.008Z,0
2019-03-27T04:07:26.409Z,0
2019-03-27T04:08:06.862Z,0
2019-03-27T04:08:47.275Z,0
2019-03-27T04:09:27.709Z,0
2019-03-27T04:10:08.136Z,0
2019-03-27T04:10:48.629Z,0
2019-03-27T04:11:28.994Z,0
2019-03-27T04:12:09.437Z,0
2019-03-27T04:12:49.828Z,0
2019-03-27T04:13:30.248Z,0
2019-03-27T04:14:10.674Z,0
2019-03-27T04:14:51.083Z,0
2019-03-27T04:15:31.505Z,0
2019-03-27T04:16:11.960Z,0
2019-03-27T04:16:52.330Z,0
2019-03-27T04:17:32.765Z,0
2019-03-27T04:18:13.177Z,0
2019-03-27T04:18:53.612Z,0
2019-03-27T04:19:34.185Z,0
2019-03-27T04:20:14.600Z,0
2019-03-27T04:20:55.031Z,0
2019-03-27T04:21:35.451Z,0
2019-03-27T04:22:15.866Z,0
2019-03-27T04:22:56.297Z,0
2019-03-27T04:23:36.709Z,0
2019-03-27T04:24:17.169Z,0
2019-03-27T04:24:57.529Z,0
2019-03-27T04:26:06.877Z,0
2019-03-27T04:26:18.379Z,0
2019-03-27T04:26:58.790Z,0
2019-03-27T04:27:39.207Z,0
2019-03-27T04:28:19.624Z,0
2019-03-27T04:29:00.040Z,0
2019-03-27T05:06:49.273Z,4
2019-03-27T05:07:29.537Z,4
2019-03-27T05:08:09.984Z,4
2019-03-27T05:08:50.357Z,4
2019-03-27T05:09:30.781Z,4
2019-03-27T05:10:11.222Z,8
2019-03-27T05:12:23.965Z,8
2019-03-27T05:13:04.374Z,12
2019-03-27T05:13:44.818Z,12
2019-03-27T05:14:25.199Z,12
2019-03-27T05:15:05.608Z,8
2019-03-27T05:15:46.003Z,8
2019-03-27T05:16:26.451Z,8
2019-03-27T05:17:06.869Z,12
2019-03-27T05:17:47.294Z,8
2019-03-27T05:18:27.687Z,12
2019-03-27T05:19:08.118Z,12
2019-03-27T05:19:48.526Z,12
2019-03-27T05:20:28.945Z,16
2019-03-27T05:21:09.345Z,16
2019-03-27T05:21:49.763Z,20
2019-03-27T05:22:30.171Z,16
2019-03-27T05:23:10.585Z,20
2019-03-27T05:23:51.000Z,20
2019-03-27T05:24:31.432Z,24
2019-03-27T05:25:11.828Z,28
2019-03-27T05:25:52.269Z,28
2019-03-27T05:26:32.703Z,32
2019-03-27T05:27:13.143Z,36
2019-03-27T05:27:53.568Z,36
2019-03-27T05:28:34.047Z,44
2019-03-27T05:29:14.443Z,44
2019-03-27T05:29:54.887Z,52
2019-03-27T05:30:35.330Z,56
2019-03-27T05:31:15.772Z,60
2019-03-27T05:31:56.201Z,64
2019-03-27T05:32:36.625Z,68
2019-03-27T05:33:17.024Z,72
2019-03-27T05:33:57.431Z,80
2019-03-27T05:34:37.881Z,84
2019-03-27T05:35:18.297Z,92
2019-03-27T05:35:58.721Z,100
2019-03-27T05:36:39.148Z,112
2019-03-27T05:37:19.578Z,116
2019-03-27T05:37:59.983Z,128
2019-03-27T05:38:40.411Z,136
2019-03-27T05:39:20.833Z,144
2019-03-27T05:40:01.282Z,152
2019-03-27T05:40:41.679Z,156
2019-03-27T05:41:22.089Z,164
2019-03-27T05:42:02.520Z,168
2019-03-27T05:42:42.950Z,172
2019-03-27T05:43:23.370Z,176
2019-03-27T05:44:03.825Z,188
2019-03-27T05:44:44.237Z,192
2019-03-27T05:45:24.667Z,208
2019-03-27T05:46:05.118Z,220
2019-03-27T05:46:45.468Z,240
2019-03-27T05:47:25.864Z,256
2019-03-27T05:48:06.274Z,260
2019-03-27T05:48:46.759Z,268
2019-03-27T05:49:27.183Z,272
2019-03-27T05:50:07.601Z,284
2019-03-27T05:50:48.076Z,296
2019-03-27T05:51:28.454Z,312
2019-03-27T05:52:08.872Z,332
2019-03-27T05:52:49.268Z,352
2019-03-27T05:53:29.677Z,380
2019-03-27T05:54:10.111Z,404
2019-03-27T05:54:50.535Z,432
2019-03-27T05:55:30.908Z,456
2019-03-27T05:56:11.379Z,464
2019-03-27T05:56:51.698Z,460
2019-03-27T05:57:32.172Z,448
2019-03-27T05:58:12.592Z,432
2019-03-27T05:58:52.934Z,424
2019-03-27T05:59:33.293Z,404
2019-03-27T06:00:13.711Z,392
2019-03-27T06:00:54.123Z,396
2019-03-27T06:01:34.554Z,408
2019-03-27T06:02:14.968Z,420
2019-03-27T06:02:55.395Z,416
2019-03-27T06:03:35.828Z,416
2019-03-27T06:04:16.254Z,428
2019-03-27T06:04:56.666Z,456
2019-03-27T06:05:37.123Z,492
2019-03-27T06:06:17.542Z,504
2019-03-27T06:06:57.998Z,516
2019-03-27T06:07:38.403Z,500
2019-03-27T06:08:20.441Z,468
2019-03-27T06:09:02.918Z,456
2019-03-27T06:09:43.361Z,460
2019-03-27T06:10:23.852Z,468
2019-03-27T06:11:04.280Z,456
2019-03-27T06:11:44.832Z,436
2019-03-27T06:12:25.256Z,416
2019-03-27T06:13:05.664Z,404
2019-03-27T06:13:46.111Z,404
2019-03-27T06:14:26.537Z,416
2019-03-27T06:15:06.965Z,420
2019-03-27T06:15:47.399Z,400
2019-03-27T06:16:27.811Z,388
2019-03-27T06:17:08.232Z,392
2019-03-27T06:17:48.664Z,400
2019-03-27T06:18:29.104Z,416
2019-03-27T06:19:09.480Z,444
2019-03-27T06:19:49.898Z,468
2019-03-27T06:20:30.328Z,508
2019-03-27T06:21:10.785Z,556
2019-03-27T06:21:51.210Z,628
2019-03-27T06:22:31.566Z,660
2019-03-27T06:23:12.002Z,680
2019-03-27T06:23:53.452Z,688
2019-03-27T06:24:33.877Z,704
2019-03-27T06:25:14.303Z,684
2019-03-27T06:25:54.737Z,652
2019-03-27T06:26:35.133Z,664
2019-03-27T06:27:15.530Z,752
2019-03-27T06:27:55.976Z,824
2019-03-27T06:28:36.394Z,812
2019-03-27T06:29:16.827Z,696
2019-03-27T06:29:57.242Z,652
2019-03-27T06:30:37.662Z,624
2019-03-27T06:31:18.599Z,648
2019-03-27T06:31:59.004Z,712
2019-03-27T06:32:39.461Z,768
2019-03-27T06:33:19.870Z,776
2019-03-27T06:34:00.292Z,832
2019-03-27T06:34:40.756Z,976
2019-03-27T06:35:21.131Z,1160
2019-03-27T06:36:01.534Z,1192
2019-03-27T06:36:41.940Z,1200
2019-03-27T06:37:22.356Z,1268
2019-03-27T06:38:02.821Z,1296
2019-03-27T06:38:43.133Z,1264
2019-03-27T06:39:23.542Z,1268
2019-03-27T06:40:03.946Z,1320
2019-03-27T06:40:44.403Z,1400
2019-03-27T06:41:24.785Z,1472
2019-03-27T06:42:05.213Z,1488
2019-03-27T06:42:45.622Z,1468
2019-03-27T06:43:26.083Z,1472
2019-03-27T06:44:06.509Z,1444
2019-03-27T06:44:46.879Z,1520
2019-03-27T06:45:27.306Z,1636
2019-03-27T06:46:07.727Z,1728
2019-03-27T06:46:48.124Z,1756
2019-03-27T06:47:28.549Z,1780
2019-03-27T06:48:08.922Z,1780
2019-03-27T06:48:49.361Z,2076
2019-03-27T06:49:29.807Z,1728
2019-03-27T06:50:10.743Z,1604
2019-03-27T06:50:51.205Z,1564
2019-03-27T06:51:39.689Z,1524
2019-03-27T06:53:56.679Z,1408
2019-03-27T06:54:37.099Z,1364
2019-03-27T06:55:17.524Z,1356
2019-03-27T06:55:57.998Z,1328
2019-03-27T06:56:39.302Z,1228
2019-03-27T06:57:19.810Z,1120
2019-03-27T06:59:18.214Z,824
2019-03-27T06:59:58.527Z,764
2019-03-27T07:00:38.979Z,744
2019-03-27T07:01:19.423Z,680
2019-03-27T07:01:59.904Z,688
2019-03-27T07:02:40.351Z,820
2019-03-27T07:03:20.879Z,940
2019-03-27T07:04:10.162Z,956
2019-03-27T07:04:41.874Z,920
2019-03-27T07:05:22.300Z,840
2019-03-27T07:06:02.792Z,756
2019-03-27T07:06:44.171Z,724
2019-03-27T07:07:24.565Z,740
2019-03-27T07:08:05.125Z,704
2019-03-27T07:08:45.746Z,732
2019-03-27T07:09:26.226Z,816
2019-03-27T07:10:06.681Z,856
2019-03-27T07:10:47.153Z,864
2019-03-27T07:11:27.625Z,896
2019-03-27T07:12:20.366Z,976
2019-03-27T07:12:48.657Z,1040
2019-03-27T07:13:29.064Z,1152
2019-03-27T07:14:09.665Z,1212
2019-03-27T07:14:50.024Z,1156
2019-03-27T07:15:30.782Z,1072
2019-03-27T07:16:11.676Z,1124
2019-03-27T07:16:52.290Z,1128
2019-03-27T07:17:34.855Z,1096
2019-03-27T07:18:15.037Z,1056
2019-03-27T07:20:34.426Z,948
2019-03-27T07:21:14.728Z,932
2019-03-27T07:21:55.391Z,912
2019-03-27T07:22:35.740Z,876
2019-03-27T07:23:16.201Z,804
2019-03-27T07:23:57.402Z,764
2019-03-27T07:24:37.536Z,740
2019-03-27T07:25:17.919Z,712
2019-03-27T07:25:58.370Z,684
2019-03-27T07:26:39.621Z,660
2019-03-27T07:27:20.860Z,624
2019-03-27T07:29:50.145Z,580
2019-03-27T07:30:30.452Z,572
2019-03-27T07:31:10.977Z,556
2019-03-27T07:31:52.948Z,544
2019-03-27T07:32:33.364Z,532
2019-03-27T07:33:13.745Z,520
2019-03-27T07:35:42.754Z,488
2019-03-27T07:36:24.540Z,484
2019-03-27T07:37:05.851Z,488
2019-03-27T07:37:50.104Z,492
2019-03-27T07:38:31.054Z,488
2019-03-27T07:39:11.702Z,480
2019-03-27T07:39:52.344Z,472
2019-03-27T07:40:32.887Z,468
2019-03-27T07:41:15.167Z,472
2019-03-27T07:41:55.162Z,488
2019-03-27T07:42:35.690Z,504
2019-03-27T07:43:16.587Z,516
2019-03-27T07:43:57.394Z,516
2019-03-27T07:44:38.671Z,520
2019-03-27T07:45:19.058Z,520
2019-03-27T07:45:59.688Z,520
2019-03-27T07:46:40.521Z,524
2019-03-27T07:47:21.476Z,524
2019-03-27T07:48:02.168Z,528
2019-03-27T07:48:53.157Z,520
2019-03-27T07:49:23.176Z,512
2019-03-27T07:50:03.803Z,508
2019-03-27T07:50:44.380Z,508
2019-03-27T07:51:25.644Z,512
2019-03-27T07:52:05.735Z,516
2019-03-27T07:52:46.839Z,520
2019-03-27T07:53:27.732Z,528
2019-03-27T07:54:08.734Z,540
2019-03-27T07:54:49.805Z,548
2019-03-27T07:57:17.683Z,544
2019-03-27T07:57:58.108Z,540
2019-03-27T07:58:38.552Z,548
2019-03-27T07:59:19.326Z,560
2019-03-27T07:59:59.687Z,556
2019-03-27T08:00:41.163Z,564
2019-03-27T08:01:22.308Z,576
2019-03-27T08:02:03.379Z,584
2019-03-27T08:02:43.837Z,596
2019-03-27T08:03:25.137Z,604
2019-03-27T08:04:07.120Z,612
2019-03-27T08:04:48.158Z,616
2019-03-27T08:05:28.852Z,620
2019-03-27T08:06:09.253Z,624
2019-03-27T08:06:49.880Z,632
2019-03-27T08:07:30.997Z,640
2019-03-27T08:08:11.530Z,648
2019-03-27T08:08:52.215Z,656
2019-03-27T08:09:33.165Z,672
2019-03-27T08:11:01.664Z,684
2019-03-27T08:11:42.451Z,696
2019-03-27T08:12:23.117Z,704
2019-03-27T08:13:06.816Z,720
2019-03-27T08:13:47.265Z,736
2019-03-27T08:14:27.660Z,760
2019-03-27T08:15:08.462Z,764
2019-03-27T08:15:48.940Z,764
2019-03-27T08:16:29.453Z,768
2019-03-27T08:17:09.904Z,772
2019-03-27T08:17:50.589Z,776
2019-03-27T08:18:30.979Z,784
2019-03-27T08:19:12.069Z,804
2019-03-27T08:20:47.687Z,816
2019-03-27T08:21:31.115Z,840
2019-03-27T08:22:09.136Z,848
2019-03-27T08:22:49.498Z,852
2019-03-27T08:23:29.947Z,880
2019-03-27T08:24:10.451Z,904
2019-03-27T08:24:50.865Z,908
2019-03-27T08:25:32.409Z,912
2019-03-27T08:26:12.886Z,928
2019-03-27T08:26:53.362Z,944
2019-03-27T08:27:33.865Z,952
2019-03-27T08:28:14.355Z,960
2019-03-27T08:28:54.784Z,968
2019-03-27T08:29:35.291Z,984
2019-03-27T08:30:16.742Z,988
2019-03-27T08:30:57.313Z,996
2019-03-27T08:31:37.799Z,1012
2019-03-27T08:32:18.128Z,1036
2019-03-27T08:32:58.651Z,1064
2019-03-27T08:33:39.042Z,1096
2019-03-27T08:34:19.627Z,1116
2019-03-27T08:35:00.158Z,1120
2019-03-27T08:35:41.361Z,1124
2019-03-27T08:36:22.047Z,1120
2019-03-27T08:37:02.476Z,1116
2019-03-27T08:37:43.453Z,1120
2019-03-27T08:38:24.127Z,1116
2019-03-27T08:39:04.728Z,1132
2019-03-27T08:39:45.232Z,1164
2019-03-27T08:40:25.633Z,1184
2019-03-27T08:41:06.923Z,1188
2019-03-27T08:41:47.472Z,1172
2019-03-27T08:42:27.942Z,1144
2019-03-27T08:43:20.492Z,1140
2019-03-27T08:43:49.120Z,1152
2019-03-27T08:44:29.734Z,1160
2019-03-27T08:45:10.247Z,1164
2019-03-27T08:45:50.832Z,1188
2019-03-27T08:46:33.252Z,1200
2019-03-27T08:47:13.949Z,1204
2019-03-27T08:47:54.621Z,1204
2019-03-27T08:48:40.268Z,1204
2019-03-27T08:49:22.520Z,1204
2019-03-27T08:50:01.683Z,1200
2019-03-27T08:50:42.187Z,1212
2019-03-27T08:51:25.189Z,1224
2019-03-27T08:52:05.546Z,1216
2019-03-27T08:52:46.162Z,1196
2019-03-27T08:53:27.679Z,1192
2019-03-27T08:54:07.771Z,1236
2019-03-27T08:54:48.714Z,1296
2019-03-27T08:55:29.682Z,1348
2019-03-27T08:56:09.918Z,1412
2019-03-27T08:56:50.867Z,1496
2019-03-27T08:57:31.693Z,1564
2019-03-27T08:58:12.317Z,1624
2019-03-27T08:58:53.664Z,1668
2019-03-27T08:59:34.512Z,1720
2019-03-27T09:00:15.892Z,1800
2019-03-27T09:00:56.667Z,1880
2019-03-27T09:01:37.506Z,1956
2019-03-27T09:02:18.085Z,2032
2019-03-27T09:02:58.560Z,2080
2019-03-27T09:03:39.296Z,2152
2019-03-27T09:04:22.749Z,2208
2019-03-27T09:05:03.535Z,2216
2019-03-27T09:05:44.299Z,2216
2019-03-27T09:06:33.355Z,2204
2019-03-27T09:07:06.288Z,2192
2019-03-27T09:07:47.219Z,2200
2019-03-27T09:10:28.733Z,2364
2019-03-27T09:11:09.398Z,2344
2019-03-27T09:11:50.281Z,2332
2019-03-27T09:12:31.059Z,2352
2019-03-27T09:13:12.576Z,2368
2019-03-27T09:13:52.421Z,2364
2019-03-27T09:14:33.316Z,2240
2019-03-27T09:15:13.794Z,2136
2019-03-27T09:15:55.125Z,2152
2019-03-27T09:16:35.277Z,2224
2019-03-27T09:17:16.575Z,2240
2019-03-27T09:17:56.578Z,2264
2019-03-27T09:18:37.276Z,2276
2019-03-27T09:19:18.641Z,2324
2019-03-27T09:19:59.512Z,2664
2019-03-27T09:20:40.262Z,2640
2019-03-27T09:21:20.822Z,2400
2019-03-27T09:22:02.858Z,2844
2019-03-27T09:22:43.592Z,2872
2019-03-27T09:23:24.602Z,2912
2019-03-27T09:24:04.886Z,2936
2019-03-27T09:24:46.084Z,2904
2019-03-27T09:25:26.574Z,2840
2019-03-27T09:26:07.144Z,2796
2019-03-27T09:26:47.549Z,2752
2019-03-27T09:27:27.939Z,2732
2019-03-27T09:28:09.056Z,2744
2019-03-27T09:28:48.808Z,2756
2019-03-27T09:29:30.091Z,2740
2019-03-27T09:30:09.927Z,2744
2019-03-27T09:30:50.383Z,2752
2019-03-27T09:31:43.894Z,2740
2019-03-27T09:32:11.471Z,2728
2019-03-27T09:32:51.875Z,2696
2019-03-27T09:33:32.352Z,2692
2019-03-27T09:34:12.799Z,2668
2019-03-27T09:34:53.224Z,2656
2019-03-27T09:35:33.651Z,2648
2019-03-27T09:36:14.965Z,2652
2019-03-27T09:36:55.381Z,2640
2019-03-27T09:37:36.439Z,2620
2019-03-27T09:38:16.953Z,2588
2019-03-27T09:38:57.300Z,2552
2019-03-27T09:39:37.782Z,2520
2019-03-27T09:40:18.225Z,2516
2019-03-27T09:40:58.626Z,2512
2019-03-27T09:41:39.028Z,2500
2019-03-27T09:42:19.506Z,2500
2019-03-27T09:43:02.752Z,2496
2019-03-27T09:43:44.662Z,2476
2019-03-27T09:44:24.316Z,2464
2019-03-27T09:45:04.783Z,2480
2019-03-27T09:45:45.171Z,2476
2019-03-27T09:46:25.662Z,2484
2019-03-27T09:47:06.251Z,2484
2019-03-27T09:47:46.596Z,2468
2019-03-27T09:48:27.255Z,2460
2019-03-27T09:49:07.686Z,2388
2019-03-27T09:49:49.660Z,1992
2019-03-27T09:50:28.460Z,1908
2019-03-27T09:51:09.517Z,1908
2019-03-27T09:51:49.896Z,1956
2019-03-27T09:52:30.304Z,2312
2019-03-27T09:53:10.709Z,2372
2019-03-27T09:53:53.096Z,2392
2019-03-27T09:54:31.594Z,2400
2019-03-27T09:55:12.052Z,2388
2019-03-27T09:55:52.473Z,2364
2019-03-27T09:56:32.922Z,2348
2019-03-27T09:57:13.331Z,2344
2019-03-27T09:57:53.763Z,2340
2019-03-27T09:58:34.171Z,2340
2019-03-27T10:00:31.675Z,2348
2019-03-27T10:01:12.137Z,2368
2019-03-27T10:01:52.549Z,2300
2019-03-27T10:02:32.982Z,1972
2019-03-27T10:03:13.388Z,1752
2019-03-27T10:03:53.927Z,1708
2019-03-27T10:04:34.437Z,1684
2019-03-27T10:05:14.871Z,1652
2019-03-27T10:05:55.288Z,1612
2019-03-27T10:06:35.720Z,1576
2019-03-27T10:07:16.162Z,1552
2019-03-27T10:07:56.814Z,1540
2019-03-27T10:08:37.234Z,1528
2019-03-27T10:09:17.649Z,1504
2019-03-27T10:09:58.042Z,1476
2019-03-27T10:10:38.505Z,1448
2019-03-27T10:11:18.960Z,1420
2019-03-27T10:11:59.378Z,1408
2019-03-27T10:12:39.797Z,1392
2019-03-27T10:13:20.220Z,1388
2019-03-27T10:14:00.650Z,1384
2019-03-27T10:14:41.106Z,1384
2019-03-27T10:15:21.553Z,1388
2019-03-27T10:16:01.967Z,1396
2019-03-27T10:16:42.439Z,1416
2019-03-27T10:19:00.923Z,1524
2019-03-27T10:19:41.883Z,1564
2019-03-27T10:20:22.249Z,1596
2019-03-27T10:21:02.772Z,1628
2019-03-27T10:21:43.379Z,1648
2019-03-27T10:22:24.283Z,1672
2019-03-27T10:23:05.609Z,1680
2019-03-27T10:23:46.694Z,1668
2019-03-27T10:24:27.482Z,1696
2019-03-27T10:25:08.460Z,1752
2019-03-27T10:25:49.585Z,1808
2019-03-27T10:26:31.620Z,1824
2019-03-27T10:27:11.318Z,1836
2019-03-27T10:27:51.793Z,1852
2019-03-27T10:28:32.177Z,1872
2019-03-27T10:29:12.703Z,1848
2019-03-27T11:07:32.959Z,1884
2019-03-27T11:08:13.421Z,1900